LVBWN SAZM-SADF
Flight info
| Callsign | LVBWN |
|---|---|
| Flight time | 1h 9m |
| Altitude | 23000 |
| Route | DCT PULPA W31 TENIL DCT EZE DCT FDO |
| Aircraft | B60T/L-SG/C |
Departure
| Time | 2026-04-23 23:24 |
|---|---|
| Airport | Ástor Piazzola International Airport (SAZM) |
Arrival
| Time | 2026-04-24 00:34 |
|---|---|
| Airport | San Fernando Airport (SADF) |
| Time | Latitude | Longitude | Altitude | Speed | Heading |
|---|---|---|---|---|---|
| 2026-04-23 22:54 | -37.93450 | -57.58000 | 48 ft | 0 kts | 298° |
| 2026-04-23 23:13 | -37.93445 | -57.58009 | 48 ft | 6 kts | 313° |
| 2026-04-23 23:13 | -37.93397 | -57.58034 | 48 ft | 11 kts | 356° |
| 2026-04-23 23:13 | -37.93391 | -57.57952 | 48 ft | 10 kts | 121° |
| 2026-04-23 23:13 | -37.93436 | -57.57850 | 48 ft | 17 kts | 122° |
| 2026-04-23 23:14 | -37.93482 | -57.57747 | 48 ft | 15 kts | 117° |
| 2026-04-23 23:14 | -37.93564 | -57.57562 | 48 ft | 32 kts | 120° |
| 2026-04-23 23:14 | -37.93689 | -57.57280 | 48 ft | 40 kts | 119° |
| 2026-04-23 23:14 | -37.93837 | -57.56944 | 48 ft | 46 kts | 120° |
| 2026-04-23 23:15 | -37.93967 | -57.56651 | 48 ft | 26 kts | 120° |
| 2026-04-23 23:15 | -37.94025 | -57.56521 | 48 ft | 10 kts | 119° |
| 2026-04-23 23:15 | -37.94035 | -57.56467 | 48 ft | 3 kts | 73° |
| 2026-04-23 23:15 | -37.94034 | -57.56463 | 48 ft | 0 kts | 70° |
| 2026-04-23 23:17 | -37.94016 | -57.56413 | 48 ft | 14 kts | 60° |
| 2026-04-23 23:17 | -37.93935 | -57.56314 | 47 ft | 9 kts | 359° |
| 2026-04-23 23:18 | -37.93930 | -57.56318 | 47 ft | 0 kts | 303° |
| 2026-04-23 23:24 | -37.93925 | -57.56327 | 47 ft | 14 kts | 303° |
| 2026-04-23 23:24 | -37.93709 | -57.56752 | 50 ft | 99 kts | 301° |
| 2026-04-23 23:24 | -37.93273 | -57.57633 | 414 ft | 127 kts | 303° |
| 2026-04-23 23:24 | -37.92803 | -57.58578 | 1253 ft | 125 kts | 301° |
| 2026-04-23 23:25 | -37.92345 | -57.59523 | 2019 ft | 123 kts | 298° |
| 2026-04-23 23:25 | -37.91925 | -57.60439 | 2863 ft | 118 kts | 297° |
| 2026-04-23 23:25 | -37.91502 | -57.61326 | 3629 ft | 117 kts | 296° |
| 2026-04-23 23:25 | -37.91080 | -57.62205 | 4373 ft | 117 kts | 295° |
| 2026-04-23 23:26 | -37.90800 | -57.62786 | 4875 ft | 116 kts | 294° |
| 2026-04-23 23:26 | -37.90240 | -57.63944 | 5815 ft | 115 kts | 292° |
| 2026-04-23 23:26 | -37.89794 | -57.64888 | 6109 ft | 146 kts | 293° |
| 2026-04-23 23:26 | -37.89201 | -57.66108 | 6123 ft | 176 kts | 296° |
| 2026-04-23 23:27 | -37.88550 | -57.67502 | 6117 ft | 192 kts | 298° |
| 2026-04-23 23:27 | -37.87438 | -57.68558 | 6117 ft | 216 kts | 334° |
| 2026-04-23 23:27 | -37.85950 | -57.68610 | 6112 ft | 215 kts | 5° |
| 2026-04-23 23:27 | -37.84507 | -57.68201 | 6107 ft | 208 kts | 360° |
| 2026-04-23 23:28 | -37.83570 | -57.68130 | 6107 ft | 201 kts | 350° |
| 2026-04-23 23:28 | -37.82184 | -57.68244 | 6106 ft | 198 kts | 346° |
| 2026-04-23 23:28 | -37.80809 | -57.68365 | 6141 ft | 197 kts | 348° |
| 2026-04-23 23:28 | -37.79470 | -57.68444 | 6386 ft | 188 kts | 348° |
| 2026-04-23 23:29 | -37.77760 | -57.68561 | 6736 ft | 182 kts | 346° |
| 2026-04-23 23:29 | -37.76928 | -57.68632 | 6903 ft | 181 kts | 347° |
| 2026-04-23 23:29 | -37.75698 | -57.68688 | 7302 ft | 173 kts | 347° |
| 2026-04-23 23:29 | -37.74133 | -57.68777 | 7807 ft | 168 kts | 346° |
| 2026-04-23 23:30 | -37.73343 | -57.68828 | 8066 ft | 168 kts | 345° |
| 2026-04-23 23:30 | -37.72176 | -57.68906 | 8465 ft | 176 kts | 345° |
| 2026-04-23 23:30 | -37.70914 | -57.68987 | 8952 ft | 186 kts | 346° |
| 2026-04-23 23:30 | -37.69603 | -57.69062 | 9482 ft | 190 kts | 346° |
| 2026-04-23 23:31 | -37.68276 | -57.69140 | 10026 ft | 192 kts | 346° |
| 2026-04-23 23:31 | -37.66940 | -57.69220 | 10526 ft | 192 kts | 346° |
| 2026-04-23 23:31 | -37.65604 | -57.69303 | 11034 ft | 193 kts | 346° |
| 2026-04-23 23:31 | -37.64262 | -57.69385 | 11548 ft | 192 kts | 346° |
| 2026-04-23 23:32 | -37.62927 | -57.69467 | 12063 ft | 192 kts | 345° |
| 2026-04-23 23:32 | -37.61612 | -57.69547 | 12575 ft | 192 kts | 345° |
| 2026-04-23 23:32 | -37.60283 | -57.69629 | 13099 ft | 191 kts | 345° |
| 2026-04-23 23:32 | -37.58955 | -57.69711 | 13623 ft | 191 kts | 345° |
| 2026-04-23 23:33 | -37.57633 | -57.69791 | 14122 ft | 190 kts | 345° |
| 2026-04-23 23:33 | -37.56312 | -57.69872 | 14590 ft | 190 kts | 344° |
| 2026-04-23 23:33 | -37.54998 | -57.69953 | 15070 ft | 189 kts | 344° |
| 2026-04-23 23:33 | -37.53688 | -57.70033 | 15532 ft | 188 kts | 344° |
| 2026-04-23 23:34 | -37.52383 | -57.70113 | 16007 ft | 187 kts | 344° |
| 2026-04-23 23:34 | -37.51086 | -57.70193 | 16488 ft | 186 kts | 344° |
| 2026-04-23 23:34 | -37.49796 | -57.70273 | 16963 ft | 185 kts | 343° |
| 2026-04-23 23:34 | -37.48507 | -57.70352 | 17446 ft | 186 kts | 343° |
| 2026-04-23 23:35 | -37.47202 | -57.70436 | 17953 ft | 190 kts | 344° |
| 2026-04-23 23:35 | -37.45873 | -57.70516 | 18479 ft | 192 kts | 344° |
| 2026-04-23 23:35 | -37.44554 | -57.70594 | 18951 ft | 193 kts | 344° |
| 2026-04-23 23:35 | -37.43215 | -57.70675 | 19436 ft | 192 kts | 344° |
| 2026-04-23 23:36 | -37.41880 | -57.70756 | 19926 ft | 192 kts | 343° |
| 2026-04-23 23:36 | -37.40546 | -57.70838 | 20419 ft | 191 kts | 343° |
| 2026-04-23 23:36 | -37.39218 | -57.70919 | 20914 ft | 191 kts | 343° |
| 2026-04-23 23:36 | -37.37909 | -57.70997 | 21400 ft | 187 kts | 343° |
| 2026-04-23 23:37 | -37.36588 | -57.70977 | 21879 ft | 193 kts | 350° |
| 2026-04-23 23:37 | -37.35255 | -57.70862 | 22366 ft | 192 kts | 349° |
| 2026-04-23 23:37 | -37.33926 | -57.70761 | 22857 ft | 191 kts | 349° |
| 2026-04-23 23:37 | -37.32573 | -57.70663 | 23119 ft | 203 kts | 349° |
| 2026-04-23 23:38 | -37.31112 | -57.70560 | 23134 ft | 222 kts | 351° |
| 2026-04-23 23:38 | -37.29518 | -57.70428 | 23130 ft | 236 kts | 352° |
| 2026-04-23 23:38 | -37.27847 | -57.70285 | 23137 ft | 245 kts | 352° |
| 2026-04-23 23:38 | -37.26119 | -57.70146 | 23130 ft | 251 kts | 353° |
| 2026-04-23 23:39 | -37.24358 | -57.70008 | 23135 ft | 257 kts | 353° |
| 2026-04-23 23:39 | -37.22563 | -57.69866 | 23133 ft | 260 kts | 353° |
| 2026-04-23 23:39 | -37.20744 | -57.69723 | 23132 ft | 263 kts | 353° |
| 2026-04-23 23:39 | -37.18930 | -57.69579 | 23129 ft | 261 kts | 353° |
| 2026-04-23 23:40 | -37.17125 | -57.69436 | 23127 ft | 258 kts | 353° |
| 2026-04-23 23:40 | -37.15357 | -57.69297 | 23122 ft | 254 kts | 353° |
| 2026-04-23 23:40 | -37.13597 | -57.69165 | 23120 ft | 254 kts | 353° |
| 2026-04-23 23:40 | -37.11826 | -57.69030 | 23121 ft | 257 kts | 353° |
| 2026-04-23 23:41 | -37.10033 | -57.68890 | 23120 ft | 258 kts | 353° |
| 2026-04-23 23:41 | -37.08255 | -57.68746 | 23118 ft | 255 kts | 353° |
| 2026-04-23 23:41 | -37.06503 | -57.68612 | 23118 ft | 255 kts | 353° |
| 2026-04-23 23:41 | -37.04735 | -57.68477 | 23120 ft | 255 kts | 353° |
| 2026-04-23 23:42 | -37.02961 | -57.68338 | 23120 ft | 255 kts | 353° |
| 2026-04-23 23:42 | -37.01191 | -57.68200 | 23121 ft | 255 kts | 353° |
| 2026-04-23 23:42 | -36.99424 | -57.68086 | 23121 ft | 251 kts | 348° |
| 2026-04-23 23:42 | -36.97707 | -57.68260 | 23122 ft | 247 kts | 344° |
| 2026-04-23 23:43 | -36.95996 | -57.68457 | 23125 ft | 247 kts | 345° |
| 2026-04-23 23:43 | -36.94283 | -57.68636 | 23125 ft | 247 kts | 345° |
| 2026-04-23 23:43 | -36.92571 | -57.68815 | 23128 ft | 247 kts | 345° |
| 2026-04-23 23:43 | -36.90881 | -57.68997 | 23128 ft | 247 kts | 345° |
| 2026-04-23 23:44 | -36.89150 | -57.69183 | 23125 ft | 247 kts | 345° |
| 2026-04-23 23:44 | -36.87465 | -57.69364 | 23125 ft | 247 kts | 345° |
| 2026-04-23 23:44 | -36.85756 | -57.69546 | 23127 ft | 246 kts | 345° |
| 2026-04-23 23:44 | -36.84051 | -57.69728 | 23131 ft | 246 kts | 345° |
| 2026-04-23 23:45 | -36.82343 | -57.69910 | 23129 ft | 246 kts | 345° |
| 2026-04-23 23:45 | -36.80640 | -57.70092 | 23129 ft | 246 kts | 345° |
| 2026-04-23 23:45 | -36.78937 | -57.70274 | 23127 ft | 246 kts | 345° |
| 2026-04-23 23:45 | -36.77233 | -57.70456 | 23128 ft | 245 kts | 345° |
| 2026-04-23 23:46 | -36.75553 | -57.70632 | 23125 ft | 241 kts | 345° |
| 2026-04-23 23:46 | -36.73869 | -57.70815 | 23130 ft | 244 kts | 345° |
| 2026-04-23 23:46 | -36.72171 | -57.70998 | 23131 ft | 246 kts | 345° |
| 2026-04-23 23:46 | -36.70491 | -57.71175 | 23131 ft | 247 kts | 345° |
| 2026-04-23 23:47 | -36.68777 | -57.71357 | 23132 ft | 247 kts | 345° |
| 2026-04-23 23:47 | -36.67059 | -57.71539 | 23133 ft | 248 kts | 345° |
| 2026-04-23 23:47 | -36.65338 | -57.71722 | 23132 ft | 248 kts | 345° |
| 2026-04-23 23:47 | -36.63616 | -57.71905 | 23131 ft | 248 kts | 345° |
| 2026-04-23 23:48 | -36.61894 | -57.72088 | 23131 ft | 249 kts | 345° |
| 2026-04-23 23:48 | -36.60169 | -57.72271 | 23128 ft | 249 kts | 345° |
| 2026-04-23 23:48 | -36.58450 | -57.72454 | 23129 ft | 249 kts | 345° |
| 2026-04-23 23:48 | -36.56725 | -57.72636 | 23133 ft | 248 kts | 345° |
| 2026-04-23 23:49 | -36.53304 | -57.72999 | 23138 ft | 248 kts | 345° |
| 2026-04-23 23:49 | -36.51562 | -57.73183 | 23137 ft | 248 kts | 345° |
| 2026-04-23 23:49 | -36.49844 | -57.73365 | 23137 ft | 248 kts | 345° |
| 2026-04-23 23:50 | -36.48152 | -57.73545 | 23133 ft | 248 kts | 345° |
| 2026-04-23 23:50 | -36.46433 | -57.73727 | 23140 ft | 247 kts | 345° |
| 2026-04-23 23:50 | -36.44720 | -57.73908 | 23136 ft | 247 kts | 345° |
| 2026-04-23 23:50 | -36.43006 | -57.74089 | 23144 ft | 247 kts | 345° |
| 2026-04-23 23:51 | -36.41296 | -57.74270 | 23140 ft | 247 kts | 345° |
| 2026-04-23 23:51 | -36.39583 | -57.74451 | 23138 ft | 247 kts | 345° |
| 2026-04-23 23:51 | -36.37870 | -57.74631 | 23144 ft | 247 kts | 344° |
| 2026-04-23 23:51 | -36.36157 | -57.74812 | 23139 ft | 247 kts | 345° |
| 2026-04-23 23:52 | -36.34448 | -57.74993 | 23139 ft | 247 kts | 344° |
| 2026-04-23 23:52 | -36.32759 | -57.75171 | 23140 ft | 247 kts | 344° |
| 2026-04-23 23:52 | -36.31030 | -57.75353 | 23138 ft | 246 kts | 344° |
| 2026-04-23 23:52 | -36.29344 | -57.75531 | 23141 ft | 246 kts | 344° |
| 2026-04-23 23:53 | -36.27635 | -57.75711 | 23137 ft | 246 kts | 344° |
| 2026-04-23 23:53 | -36.25929 | -57.75890 | 23138 ft | 246 kts | 344° |
| 2026-04-23 23:53 | -36.24225 | -57.76069 | 23142 ft | 246 kts | 344° |
| 2026-04-23 23:53 | -36.22522 | -57.76248 | 23145 ft | 246 kts | 344° |
| 2026-04-23 23:54 | -36.20817 | -57.76428 | 23141 ft | 246 kts | 344° |
| 2026-04-23 23:54 | -36.19113 | -57.76607 | 23141 ft | 246 kts | 344° |
| 2026-04-23 23:54 | -36.17410 | -57.76786 | 23143 ft | 246 kts | 344° |
| 2026-04-23 23:54 | -36.15706 | -57.76964 | 23143 ft | 246 kts | 344° |
| 2026-04-23 23:55 | -36.14006 | -57.77143 | 23141 ft | 246 kts | 344° |
| 2026-04-23 23:55 | -36.12300 | -57.77322 | 23141 ft | 246 kts | 344° |
| 2026-04-23 23:55 | -36.10623 | -57.77498 | 23142 ft | 246 kts | 344° |
| 2026-04-23 23:55 | -36.08921 | -57.77676 | 23144 ft | 245 kts | 344° |
| 2026-04-23 23:56 | -36.07220 | -57.77854 | 23148 ft | 245 kts | 344° |
| 2026-04-23 23:56 | -36.05521 | -57.78032 | 23148 ft | 244 kts | 343° |
| 2026-04-23 23:56 | -36.03829 | -57.78209 | 23147 ft | 244 kts | 343° |
| 2026-04-23 23:56 | -36.02141 | -57.78386 | 23151 ft | 243 kts | 343° |
| 2026-04-23 23:57 | -36.00459 | -57.78561 | 23148 ft | 242 kts | 343° |
| 2026-04-23 23:57 | -35.98779 | -57.78738 | 23149 ft | 242 kts | 343° |
| 2026-04-23 23:57 | -35.97103 | -57.78913 | 23146 ft | 242 kts | 343° |
| 2026-04-23 23:57 | -35.95423 | -57.79088 | 23146 ft | 242 kts | 343° |
| 2026-04-23 23:58 | -35.93765 | -57.79261 | 23147 ft | 242 kts | 343° |
| 2026-04-23 23:58 | -35.92088 | -57.79436 | 23149 ft | 242 kts | 343° |
| 2026-04-23 23:58 | -35.90413 | -57.79611 | 23147 ft | 242 kts | 343° |
| 2026-04-23 23:58 | -35.88736 | -57.79786 | 23152 ft | 242 kts | 343° |
| 2026-04-23 23:59 | -35.87063 | -57.79960 | 23151 ft | 241 kts | 343° |
| 2026-04-23 23:59 | -35.85384 | -57.80135 | 23150 ft | 242 kts | 343° |
| 2026-04-23 23:59 | -35.83710 | -57.80310 | 23151 ft | 242 kts | 343° |
| 2026-04-23 23:59 | -35.82036 | -57.80484 | 23155 ft | 242 kts | 343° |
| 2026-04-24 00:00 | -35.80360 | -57.80658 | 23154 ft | 242 kts | 343° |
| 2026-04-24 00:00 | -35.78680 | -57.80833 | 23153 ft | 242 kts | 343° |
| 2026-04-24 00:00 | -35.76999 | -57.81008 | 23152 ft | 242 kts | 343° |
| 2026-04-24 00:00 | -35.75314 | -57.81183 | 23153 ft | 244 kts | 343° |
| 2026-04-24 00:01 | -35.73644 | -57.81357 | 23156 ft | 245 kts | 343° |
| 2026-04-24 00:01 | -35.71945 | -57.81533 | 23152 ft | 246 kts | 343° |
| 2026-04-24 00:01 | -35.70244 | -57.81709 | 23157 ft | 246 kts | 343° |
| 2026-04-24 00:01 | -35.68533 | -57.81886 | 23148 ft | 247 kts | 343° |
| 2026-04-24 00:02 | -35.66822 | -57.82063 | 23151 ft | 247 kts | 343° |
| 2026-04-24 00:02 | -35.65110 | -57.82241 | 23147 ft | 247 kts | 343° |
| 2026-04-24 00:02 | -35.63397 | -57.82419 | 23154 ft | 247 kts | 343° |
| 2026-04-24 00:02 | -35.61683 | -57.82596 | 23157 ft | 247 kts | 343° |
| 2026-04-24 00:03 | -35.59969 | -57.82773 | 23155 ft | 247 kts | 343° |
| 2026-04-24 00:03 | -35.58255 | -57.82950 | 23156 ft | 247 kts | 343° |
| 2026-04-24 00:03 | -35.56548 | -57.83126 | 23153 ft | 246 kts | 343° |
| 2026-04-24 00:03 | -35.54951 | -57.83581 | 23160 ft | 226 kts | 321° |
| 2026-04-24 00:04 | -35.53816 | -57.84771 | 22904 ft | 203 kts | 302° |
| 2026-04-24 00:04 | -35.52982 | -57.86019 | 22587 ft | 178 kts | 303° |
| 2026-04-24 00:04 | -35.52141 | -57.87039 | 22231 ft | 168 kts | 308° |
| 2026-04-24 00:04 | -35.51255 | -57.87951 | 21847 ft | 166 kts | 310° |
| 2026-04-24 00:05 | -35.50340 | -57.88852 | 21485 ft | 171 kts | 312° |
| 2026-04-24 00:05 | -35.49288 | -57.89616 | 21138 ft | 182 kts | 327° |
| 2026-04-24 00:05 | -35.48032 | -57.90029 | 20808 ft | 193 kts | 341° |
| 2026-04-24 00:05 | -35.46661 | -57.90033 | 20487 ft | 203 kts | 356° |
| 2026-04-24 00:06 | -35.45259 | -57.89627 | 20170 ft | 208 kts | 5° |
| 2026-04-24 00:06 | -35.43874 | -57.89093 | 19852 ft | 212 kts | 14° |
| 2026-04-24 00:06 | -35.42536 | -57.88336 | 19553 ft | 209 kts | 10° |
| 2026-04-24 00:06 | -35.41182 | -57.88247 | 19228 ft | 187 kts | 334° |
| 2026-04-24 00:07 | -35.40200 | -57.89122 | 18914 ft | 172 kts | 298° |
| 2026-04-24 00:07 | -35.39643 | -57.90408 | 18613 ft | 171 kts | 296° |
| 2026-04-24 00:07 | -35.38971 | -57.91598 | 18316 ft | 174 kts | 307° |
| 2026-04-24 00:07 | -35.38094 | -57.92636 | 17988 ft | 176 kts | 313° |
| 2026-04-24 00:08 | -35.37169 | -57.93617 | 17664 ft | 176 kts | 313° |
| 2026-04-24 00:08 | -35.36245 | -57.94598 | 17354 ft | 174 kts | 313° |
| 2026-04-24 00:08 | -35.35323 | -57.95587 | 17164 ft | 184 kts | 313° |
| 2026-04-24 00:08 | -35.34324 | -57.96661 | 17040 ft | 197 kts | 314° |
| 2026-04-24 00:09 | -35.33289 | -57.97761 | 16945 ft | 202 kts | 314° |
| 2026-04-24 00:09 | -35.32211 | -57.98909 | 16854 ft | 204 kts | 314° |
| 2026-04-24 00:09 | -35.31126 | -58.00070 | 16770 ft | 210 kts | 314° |
| 2026-04-24 00:09 | -35.30019 | -58.01251 | 16699 ft | 212 kts | 314° |
| 2026-04-24 00:10 | -35.28916 | -58.02428 | 16633 ft | 214 kts | 314° |
| 2026-04-24 00:10 | -35.27794 | -58.03624 | 16567 ft | 214 kts | 314° |
| 2026-04-24 00:10 | -35.26669 | -58.04825 | 16500 ft | 215 kts | 314° |
| 2026-04-24 00:10 | -35.25543 | -58.06026 | 16434 ft | 215 kts | 314° |
| 2026-04-24 00:11 | -35.24421 | -58.07222 | 16368 ft | 214 kts | 314° |
| 2026-04-24 00:11 | -35.23294 | -58.08423 | 16299 ft | 214 kts | 314° |
| 2026-04-24 00:11 | -35.22173 | -58.09618 | 16237 ft | 214 kts | 314° |
| 2026-04-24 00:11 | -35.21052 | -58.10812 | 16171 ft | 213 kts | 314° |
| 2026-04-24 00:12 | -35.19929 | -58.12008 | 16104 ft | 216 kts | 314° |
| 2026-04-24 00:12 | -35.18785 | -58.13226 | 16049 ft | 219 kts | 314° |
| 2026-04-24 00:12 | -35.17648 | -58.14433 | 16001 ft | 220 kts | 314° |
| 2026-04-24 00:12 | -35.16490 | -58.15665 | 15922 ft | 222 kts | 314° |
| 2026-04-24 00:13 | -35.15320 | -58.16909 | 15827 ft | 224 kts | 314° |
| 2026-04-24 00:13 | -35.14142 | -58.18159 | 15736 ft | 225 kts | 314° |
| 2026-04-24 00:13 | -35.12964 | -58.19410 | 15646 ft | 225 kts | 314° |
| 2026-04-24 00:13 | -35.11779 | -58.20668 | 15554 ft | 225 kts | 315° |
| 2026-04-24 00:14 | -35.10600 | -58.21919 | 15465 ft | 225 kts | 315° |
| 2026-04-24 00:14 | -35.09419 | -58.23172 | 15376 ft | 225 kts | 315° |
| 2026-04-24 00:14 | -35.08231 | -58.24432 | 15289 ft | 225 kts | 315° |
| 2026-04-24 00:14 | -35.07047 | -58.25686 | 15201 ft | 225 kts | 315° |
| 2026-04-24 00:15 | -35.05865 | -58.26939 | 15114 ft | 225 kts | 315° |
| 2026-04-24 00:15 | -35.04679 | -58.28196 | 15035 ft | 225 kts | 315° |
| 2026-04-24 00:15 | -35.03494 | -58.29449 | 14949 ft | 226 kts | 315° |
| 2026-04-24 00:15 | -35.02344 | -58.30664 | 14766 ft | 217 kts | 315° |
| 2026-04-24 00:16 | -35.01224 | -58.31849 | 14565 ft | 211 kts | 314° |
| 2026-04-24 00:16 | -35.00128 | -58.33011 | 14360 ft | 208 kts | 315° |
| 2026-04-24 00:16 | -34.99040 | -58.34163 | 14153 ft | 206 kts | 315° |
| 2026-04-24 00:16 | -34.97958 | -58.35307 | 13947 ft | 206 kts | 315° |
| 2026-04-24 00:17 | -34.96877 | -58.36449 | 13718 ft | 205 kts | 315° |
| 2026-04-24 00:17 | -34.95798 | -58.37589 | 13495 ft | 205 kts | 315° |
| 2026-04-24 00:17 | -34.94725 | -58.38721 | 13274 ft | 200 kts | 315° |
| 2026-04-24 00:17 | -34.93699 | -58.39800 | 12930 ft | 190 kts | 315° |
| 2026-04-24 00:18 | -34.92712 | -58.40845 | 12603 ft | 186 kts | 315° |
| 2026-04-24 00:18 | -34.91751 | -58.41859 | 12279 ft | 184 kts | 315° |
| 2026-04-24 00:18 | -34.90792 | -58.42871 | 11988 ft | 181 kts | 315° |
| 2026-04-24 00:18 | -34.89844 | -58.43871 | 11696 ft | 180 kts | 315° |
| 2026-04-24 00:19 | -34.88901 | -58.44864 | 11407 ft | 177 kts | 315° |
| 2026-04-24 00:19 | -34.87980 | -58.45834 | 11113 ft | 174 kts | 315° |
| 2026-04-24 00:19 | -34.87067 | -58.46797 | 10821 ft | 173 kts | 315° |
| 2026-04-24 00:19 | -34.86163 | -58.47749 | 10534 ft | 171 kts | 315° |
| 2026-04-24 00:20 | -34.85568 | -58.48375 | 10340 ft | 171 kts | 316° |
| 2026-04-24 00:20 | -34.82540 | -58.51561 | 9311 ft | 169 kts | 316° |
| 2026-04-24 00:21 | -34.81651 | -58.52494 | 9007 ft | 168 kts | 316° |
| 2026-04-24 00:21 | -34.80764 | -58.53426 | 8706 ft | 168 kts | 316° |
| 2026-04-24 00:21 | -34.79891 | -58.54343 | 8414 ft | 169 kts | 317° |
| 2026-04-24 00:21 | -34.78992 | -58.55290 | 8133 ft | 174 kts | 317° |
| 2026-04-24 00:22 | -34.78067 | -58.56258 | 7865 ft | 175 kts | 317° |
| 2026-04-24 00:22 | -34.77144 | -58.57226 | 7604 ft | 175 kts | 317° |
| 2026-04-24 00:22 | -34.76224 | -58.58191 | 7343 ft | 174 kts | 317° |
| 2026-04-24 00:22 | -34.75308 | -58.59152 | 7079 ft | 174 kts | 318° |
| 2026-04-24 00:23 | -34.74396 | -58.60108 | 6821 ft | 173 kts | 318° |
| 2026-04-24 00:23 | -34.73470 | -58.61078 | 6571 ft | 177 kts | 318° |
| 2026-04-24 00:23 | -34.72537 | -58.62056 | 6313 ft | 178 kts | 318° |
| 2026-04-24 00:23 | -34.71597 | -58.63039 | 6056 ft | 177 kts | 319° |
| 2026-04-24 00:24 | -34.70664 | -58.64017 | 5805 ft | 176 kts | 319° |
| 2026-04-24 00:24 | -34.69736 | -58.64988 | 5529 ft | 176 kts | 319° |
| 2026-04-24 00:24 | -34.68838 | -58.65927 | 5194 ft | 167 kts | 319° |
| 2026-04-24 00:24 | -34.67968 | -58.66840 | 4854 ft | 164 kts | 320° |
| 2026-04-24 00:25 | -34.67107 | -58.67740 | 4499 ft | 163 kts | 320° |
| 2026-04-24 00:25 | -34.66250 | -58.68636 | 4156 ft | 162 kts | 320° |
| 2026-04-24 00:25 | -34.65412 | -58.69512 | 3825 ft | 161 kts | 321° |
| 2026-04-24 00:25 | -34.64565 | -58.70399 | 3497 ft | 160 kts | 321° |
| 2026-04-24 00:26 | -34.63720 | -58.71280 | 3153 ft | 160 kts | 321° |
| 2026-04-24 00:26 | -34.62837 | -58.72200 | 3007 ft | 177 kts | 321° |
| 2026-04-24 00:26 | -34.61864 | -58.73213 | 3011 ft | 190 kts | 321° |
| 2026-04-24 00:26 | -34.60844 | -58.74276 | 3011 ft | 196 kts | 321° |
| 2026-04-24 00:27 | -34.59816 | -58.75350 | 3007 ft | 188 kts | 321° |
| 2026-04-24 00:27 | -34.58911 | -58.76300 | 2994 ft | 155 kts | 321° |
| 2026-04-24 00:27 | -34.58133 | -58.77117 | 2985 ft | 143 kts | 321° |
| 2026-04-24 00:27 | -34.57362 | -58.77793 | 2989 ft | 135 kts | 340° |
| 2026-04-24 00:28 | -34.56454 | -58.77943 | 2985 ft | 131 kts | 9° |
| 2026-04-24 00:28 | -34.55642 | -58.77570 | 2984 ft | 122 kts | 36° |
| 2026-04-24 00:28 | -34.55017 | -58.76876 | 2986 ft | 122 kts | 43° |
| 2026-04-24 00:28 | -34.54413 | -58.76171 | 3013 ft | 120 kts | 45° |
| 2026-04-24 00:29 | -34.53817 | -58.75409 | 2853 ft | 130 kts | 50° |
| 2026-04-24 00:29 | -34.53251 | -58.74545 | 2697 ft | 130 kts | 51° |
| 2026-04-24 00:29 | -34.52714 | -58.73674 | 2556 ft | 129 kts | 56° |
| 2026-04-24 00:29 | -34.52289 | -58.72703 | 2341 ft | 132 kts | 65° |
| 2026-04-24 00:30 | -34.51891 | -58.71737 | 2156 ft | 126 kts | 58° |
| 2026-04-24 00:30 | -34.51463 | -58.70824 | 2007 ft | 124 kts | 60° |
| 2026-04-24 00:30 | -34.51079 | -58.69893 | 1811 ft | 125 kts | 65° |
| 2026-04-24 00:30 | -34.50882 | -58.68870 | 1638 ft | 125 kts | 85° |
| 2026-04-24 00:31 | -34.50905 | -58.67830 | 1499 ft | 122 kts | 89° |
| 2026-04-24 00:31 | -34.50927 | -58.66811 | 1321 ft | 119 kts | 88° |
| 2026-04-24 00:31 | -34.50900 | -58.65836 | 1160 ft | 113 kts | 76° |
| 2026-04-24 00:31 | -34.50522 | -58.65042 | 1031 ft | 108 kts | 45° |
| 2026-04-24 00:32 | -34.49966 | -58.64403 | 971 ft | 114 kts | 43° |
| 2026-04-24 00:32 | -34.49351 | -58.63694 | 968 ft | 126 kts | 44° |
| 2026-04-24 00:32 | -34.48735 | -58.62959 | 874 ft | 125 kts | 44° |
| 2026-04-24 00:32 | -34.48114 | -58.62238 | 701 ft | 121 kts | 45° |
| 2026-04-24 00:33 | -34.47572 | -58.61579 | 511 ft | 107 kts | 43° |
| 2026-04-24 00:33 | -34.47012 | -58.60925 | 362 ft | 113 kts | 44° |
| 2026-04-24 00:33 | -34.46458 | -58.60272 | 197 ft | 107 kts | 44° |
| 2026-04-24 00:33 | -34.45942 | -58.59663 | 61 ft | 103 kts | 45° |
| 2026-04-24 00:34 | -34.45444 | -58.59076 | 22 ft | 90 kts | 44° |
| 2026-04-24 00:34 | -34.45086 | -58.58653 | 21 ft | 43 kts | 44° |
| 2026-04-24 00:34 | -34.44986 | -58.58535 | 21 ft | 14 kts | 45° |
| 2026-04-24 00:34 | -34.44878 | -58.58406 | 21 ft | 22 kts | 44° |
| 2026-04-24 00:35 | -34.44856 | -58.58331 | 21 ft | 8 kts | 116° |
| 2026-04-24 00:35 | -34.44883 | -58.58296 | 21 ft | 5 kts | 139° |
| 2026-04-24 00:35 | -34.44921 | -58.58262 | 21 ft | 11 kts | 146° |
| 2026-04-24 00:35 | -34.44984 | -58.58217 | 21 ft | 20 kts | 150° |
| 2026-04-24 00:36 | -34.45079 | -58.58151 | 21 ft | 12 kts | 148° |
| 2026-04-24 00:36 | -34.45203 | -58.58062 | 21 ft | 28 kts | 149° |
| 2026-04-24 00:36 | -34.45336 | -58.57994 | 21 ft | 10 kts | 230° |
| 2026-04-24 00:36 | -34.45362 | -58.58050 | 21 ft | 10 kts | 244° |
| 2026-04-24 00:37 | -34.45414 | -58.58172 | 21 ft | 21 kts | 243° |
| 2026-04-24 00:37 | -34.45468 | -58.58296 | 21 ft | 9 kts | 242° |
| 2026-04-24 00:37 | -34.45495 | -58.58358 | 21 ft | 8 kts | 242° |
| 2026-04-24 00:37 | -34.45518 | -58.58410 | 21 ft | 4 kts | 225° |
| 2026-04-24 00:38 | -34.45547 | -58.58400 | 21 ft | 2 kts | 157° |
| 2026-04-24 00:38 | -34.45564 | -58.58396 | 21 ft | 3 kts | 224° |
| 2026-04-24 00:38 | -34.45551 | -58.58402 | 22 ft | 0 kts | 195° |
| 2026-04-24 00:38 | -34.45560 | -58.58403 | 21 ft | 1 kts | 190° |
| 2026-04-24 00:39 | -34.45564 | -58.58405 | 21 ft | 0 kts | 203° |